createdAt,value
2019-05-30T00:01:17.952Z,100909.00
2019-05-30T00:03:46.435Z,100910.00
2019-05-30T00:06:15.063Z,100905.00
2019-05-30T00:08:43.736Z,100901.00
2019-05-30T00:11:12.494Z,100900.00
2019-05-30T00:13:41.159Z,100907.00
2019-05-30T00:16:10.027Z,100902.00
2019-05-30T00:18:38.495Z,100914.00
2019-05-30T00:21:07.149Z,100912.00
2019-05-30T00:23:35.694Z,100915.00
2019-05-30T00:26:04.405Z,100912.00
2019-05-30T00:28:32.949Z,100913.00
2019-05-30T00:31:02.552Z,100908.00
2019-05-30T00:33:31.488Z,100913.00
2019-05-30T00:36:00.172Z,100918.00
2019-05-30T00:38:29.770Z,100919.00
2019-05-30T00:41:00.023Z,100922.00
2019-05-30T00:43:29.604Z,100932.00
2019-05-30T00:45:58.345Z,100922.00
2019-05-30T00:48:27.025Z,100926.00
2019-05-30T00:50:56.361Z,100927.00
2019-05-30T00:53:25.263Z,100921.00
2019-05-30T00:55:56.715Z,100930.00
2019-05-30T00:58:27.319Z,100930.00
2019-05-30T01:00:56.783Z,100926.00
2019-05-30T01:03:25.613Z,100928.00
2019-05-30T01:05:54.301Z,100925.00
2019-05-30T01:08:23.058Z,100923.00
2019-05-30T01:10:51.900Z,100923.00
2019-05-30T01:13:20.632Z,100921.00
2019-05-30T01:15:49.318Z,100923.00
2019-05-30T01:18:18.032Z,100923.00
2019-05-30T01:20:46.860Z,100924.00
2019-05-30T01:23:15.471Z,100926.00
2019-05-30T01:25:44.124Z,100922.00
2019-05-30T01:28:12.721Z,100927.00
2019-05-30T01:30:41.456Z,100921.00
2019-05-30T01:33:09.815Z,100924.00
2019-05-30T01:35:38.476Z,100927.00
2019-05-30T01:38:08.113Z,100925.00
2019-05-30T01:40:36.788Z,100923.00
2019-05-30T01:43:06.437Z,100921.00
2019-05-30T01:45:35.120Z,100914.00
2019-05-30T01:48:04.670Z,100922.00
2019-05-30T01:50:33.432Z,100924.00
2019-05-30T01:53:02.679Z,100915.00
2019-05-30T01:55:31.094Z,100917.00
2019-05-30T01:58:03.252Z,100919.00
2019-05-30T02:00:38.732Z,100915.00
2019-05-30T02:03:09.486Z,100922.00
2019-05-30T02:05:38.739Z,100918.00
2019-05-30T02:08:07.469Z,100912.00
2019-05-30T02:10:36.106Z,100917.00
2019-05-30T02:13:05.551Z,100914.00
2019-05-30T02:15:34.034Z,100916.00
2019-05-30T02:18:05.615Z,100909.00
2019-05-30T02:20:34.511Z,100906.00
2019-05-30T02:23:06.190Z,100907.00
2019-05-30T02:25:35.274Z,100910.00
2019-05-30T02:28:06.266Z,100916.00
2019-05-30T02:30:34.320Z,100912.00
2019-05-30T02:33:05.136Z,100911.00
2019-05-30T02:35:33.869Z,100919.00
2019-05-30T02:38:03.070Z,100926.00
2019-05-30T02:40:32.302Z,100927.00
2019-05-30T02:43:03.676Z,100931.00
2019-05-30T02:45:34.964Z,100927.00
2019-05-30T02:48:05.358Z,100929.00
2019-05-30T02:50:34.524Z,100935.00
2019-05-30T02:53:03.830Z,100949.00
2019-05-30T02:55:34.275Z,100942.00
2019-05-30T02:58:06.076Z,100945.00
2019-05-30T03:00:37.458Z,100937.00
2019-05-30T03:03:07.378Z,100958.00
2019-05-30T03:05:36.780Z,100957.00
2019-05-30T03:08:09.301Z,100956.00
2019-05-30T03:10:37.753Z,100956.00
2019-05-30T03:13:08.122Z,100962.00
2019-05-30T03:15:36.742Z,100967.00
2019-05-30T03:18:08.003Z,100968.00
2019-05-30T03:20:35.958Z,100957.00
2019-05-30T03:23:05.823Z,100958.00
2019-05-30T03:25:34.709Z,100970.00
2019-05-30T03:28:05.317Z,100969.00
2019-05-30T03:30:34.870Z,100971.00
2019-05-30T03:33:17.386Z,100972.00
2019-05-30T03:35:41.619Z,100982.00
2019-05-30T03:38:05.814Z,100979.00
2019-05-30T03:40:35.254Z,100993.00
2019-05-30T03:43:06.025Z,100993.00
2019-05-30T03:45:38.237Z,100985.00
2019-05-30T03:48:13.604Z,100994.00
2019-05-30T03:50:48.168Z,100985.00
2019-05-30T03:53:17.066Z,100989.00
2019-05-30T03:55:53.119Z,100989.00
2019-05-30T03:58:50.041Z,100993.00
2019-05-30T04:01:30.615Z,100993.00
2019-05-30T04:04:16.665Z,100993.00
2019-05-30T04:06:50.867Z,100986.00
2019-05-30T04:09:25.192Z,100994.00
2019-05-30T04:12:26.332Z,100987.00
2019-05-30T04:15:02.677Z,100995.00
2019-05-30T04:17:31.135Z,100995.00
2019-05-30T04:19:59.802Z,100992.00
2019-05-30T04:22:28.781Z,100995.00
2019-05-30T04:24:57.705Z,101000.00
2019-05-30T04:27:27.573Z,101002.00
2019-05-30T04:29:56.363Z,101009.00
2019-05-30T04:32:25.109Z,101004.00
2019-05-30T04:34:53.429Z,101013.00
2019-05-30T04:37:22.744Z,101022.00
2019-05-30T04:39:53.174Z,101023.00
2019-05-30T04:42:21.687Z,101026.00
2019-05-30T04:44:50.432Z,101033.00
2019-05-30T04:47:20.935Z,101024.00
2019-05-30T04:49:49.490Z,101022.00
2019-05-30T04:52:22.649Z,101026.00
2019-05-30T04:54:49.686Z,101030.00
2019-05-30T04:57:19.584Z,101039.00
2019-05-30T04:59:51.074Z,101026.00
2019-05-30T05:02:23.248Z,101028.00
2019-05-30T05:04:52.098Z,101024.00
2019-05-30T05:07:22.009Z,101023.00
2019-05-30T05:09:51.014Z,101022.00
2019-05-30T05:12:20.378Z,101025.00
2019-05-30T05:14:48.996Z,101033.00
2019-05-30T05:17:18.860Z,101031.00
2019-05-30T05:19:47.925Z,101034.00
2019-05-30T05:22:17.003Z,101038.00
2019-05-30T05:24:46.039Z,101030.00
2019-05-30T05:27:15.539Z,101031.00
2019-05-30T05:29:44.545Z,101034.00
2019-05-30T05:32:14.068Z,101045.00
2019-05-30T05:34:43.423Z,101047.00
2019-05-30T05:37:12.187Z,101044.00
2019-05-30T05:39:41.071Z,101049.00
2019-05-30T05:42:09.459Z,101052.00
2019-05-30T05:44:38.496Z,101037.00
2019-05-30T05:47:09.177Z,101040.00
2019-05-30T05:49:39.236Z,101041.00
2019-05-30T05:52:07.922Z,101038.00
2019-05-30T05:54:36.446Z,101043.00
2019-05-30T05:57:05.308Z,101053.00
2019-05-30T05:59:36.136Z,101059.00
2019-05-30T06:02:06.955Z,101064.00
2019-05-30T06:04:37.522Z,101065.00
2019-05-30T06:07:06.525Z,101064.00
2019-05-30T06:09:34.854Z,101073.00
2019-05-30T06:12:04.499Z,101067.00
2019-05-30T06:14:33.524Z,101065.00
2019-05-30T06:17:02.181Z,101059.00
2019-05-30T06:19:45.545Z,101068.00
2019-05-30T06:22:01.530Z,101068.00
2019-05-30T06:24:31.122Z,101068.00
2019-05-30T06:27:00.053Z,101064.00
2019-05-30T06:29:29.926Z,101074.00
2019-05-30T06:31:58.573Z,101068.00
2019-05-30T06:34:38.043Z,101077.00
2019-05-30T06:36:57.523Z,101082.00
2019-05-30T06:39:27.601Z,101081.00
2019-05-30T06:41:56.656Z,101085.00
2019-05-30T06:44:26.017Z,101076.00
2019-05-30T06:46:55.650Z,101080.00
2019-05-30T06:49:24.721Z,101084.00
2019-05-30T06:51:54.475Z,101081.00
2019-05-30T06:54:24.695Z,101085.00
2019-05-30T06:56:53.467Z,101085.00
2019-05-30T06:59:23.387Z,101087.00
2019-05-30T07:01:52.372Z,101087.00
2019-05-30T07:04:25.092Z,101083.00
2019-05-30T07:06:55.862Z,101090.00
2019-05-30T07:09:24.916Z,101089.00
2019-05-30T07:11:53.665Z,101079.00
2019-05-30T07:14:23.041Z,101079.00
2019-05-30T07:16:51.987Z,101079.00
2019-05-30T07:19:20.997Z,101078.00
2019-05-30T07:21:49.998Z,101077.00
2019-05-30T07:24:18.567Z,101080.00
2019-05-30T07:26:47.537Z,101072.00
2019-05-30T07:29:16.388Z,101083.00
2019-05-30T07:31:44.880Z,101081.00
2019-05-30T07:34:14.020Z,101089.00
2019-05-30T07:36:42.601Z,101076.00
2019-05-30T07:39:11.738Z,101082.00
2019-05-30T07:41:40.433Z,101085.00
2019-05-30T07:44:09.070Z,101090.00
2019-05-30T07:46:37.702Z,101100.00
2019-05-30T07:49:06.432Z,101092.00
2019-05-30T07:51:35.044Z,101084.00
2019-05-30T07:54:05.487Z,101086.00
2019-05-30T07:56:35.171Z,101078.00
2019-05-30T07:59:04.438Z,101081.00
2019-05-30T08:01:33.179Z,101085.00
2019-05-30T08:04:02.482Z,101096.00
2019-05-30T08:06:33.853Z,101094.00
2019-05-30T08:09:06.307Z,101089.00
2019-05-30T08:11:35.126Z,101091.00
2019-05-30T08:14:03.802Z,101095.00
2019-05-30T08:16:33.312Z,101093.00
2019-05-30T08:19:02.281Z,101094.00
2019-05-30T08:21:32.713Z,101096.00
2019-05-30T08:24:01.495Z,101104.00
2019-05-30T08:26:30.144Z,101109.00
2019-05-30T08:28:59.157Z,101104.00
2019-05-30T08:31:30.356Z,101109.00
2019-05-30T08:33:59.015Z,101113.00
2019-05-30T08:36:28.760Z,101112.00
2019-05-30T08:38:57.381Z,101110.00
2019-05-30T08:41:25.884Z,101121.00
2019-05-30T08:43:54.552Z,101116.00
2019-05-30T08:46:23.307Z,101116.00
2019-05-30T08:48:52.350Z,101114.00
2019-05-30T08:51:21.539Z,101100.00
2019-05-30T08:53:49.970Z,101106.00
2019-05-30T08:56:18.647Z,101105.00
2019-05-30T08:58:47.401Z,101101.00
2019-05-30T09:01:16.201Z,101102.00
2019-05-30T09:03:46.147Z,101101.00
2019-05-30T09:06:14.694Z,101100.00
2019-05-30T09:08:46.281Z,101096.00
2019-05-30T09:11:16.954Z,101099.00
2019-05-30T09:13:46.765Z,101109.00
2019-05-30T09:16:15.701Z,101110.00
2019-05-30T09:18:45.292Z,101107.00
2019-05-30T09:21:13.861Z,101108.00
2019-05-30T09:23:43.949Z,101111.00
2019-05-30T09:26:12.494Z,101102.00
2019-05-30T09:28:42.206Z,101112.00
2019-05-30T09:31:11.090Z,101092.00
2019-05-30T09:33:40.926Z,101093.00
2019-05-30T09:36:13.604Z,101095.00
2019-05-30T09:38:43.506Z,101096.00
2019-05-30T09:41:12.577Z,101089.00
2019-05-30T09:43:42.849Z,101089.00
2019-05-30T09:46:11.360Z,101091.00
2019-05-30T09:48:42.042Z,101092.00
2019-05-30T09:51:10.992Z,101087.00
2019-05-30T09:53:41.074Z,101091.00
2019-05-30T09:56:11.151Z,101086.00
2019-05-30T09:58:42.250Z,101086.00
2019-05-30T10:01:10.886Z,101082.00
2019-05-30T10:03:39.351Z,101081.00
2019-05-30T10:06:08.163Z,101081.00
2019-05-30T10:08:37.161Z,101072.00
2019-05-30T10:11:07.252Z,101083.00
2019-05-30T10:13:37.856Z,101087.00
2019-05-30T10:16:06.804Z,101093.00
2019-05-30T10:18:35.771Z,101090.00
2019-05-30T10:21:04.440Z,101092.00
2019-05-30T10:23:32.861Z,101091.00
2019-05-30T10:26:01.950Z,101100.00
2019-05-30T10:28:30.542Z,101088.00
2019-05-30T10:30:59.912Z,101086.00
2019-05-30T10:33:29.023Z,101088.00
2019-05-30T10:35:57.885Z,101096.00
2019-05-30T10:38:26.500Z,101091.00
2019-05-30T10:40:56.063Z,101089.00
2019-05-30T10:43:25.072Z,101087.00
2019-05-30T10:45:53.855Z,101090.00
2019-05-30T10:48:22.794Z,101079.00
2019-05-30T10:50:52.289Z,101093.00
2019-05-30T10:53:21.150Z,101086.00
2019-05-30T10:55:50.175Z,101085.00
2019-05-30T10:58:18.808Z,101080.00
2019-05-30T11:00:53.597Z,101083.00
2019-05-30T11:03:24.290Z,101080.00
2019-05-30T11:06:11.254Z,101080.00
2019-05-30T11:08:42.416Z,101078.00
2019-05-30T11:11:13.380Z,101082.00
2019-05-30T11:13:43.956Z,101083.00
2019-05-30T11:16:12.470Z,101089.00
2019-05-30T11:18:41.457Z,101080.00
2019-05-30T11:21:10.088Z,101089.00
2019-05-30T11:23:38.864Z,101080.00
2019-05-30T11:26:07.760Z,101088.00
2019-05-30T11:28:36.811Z,101085.00
2019-05-30T11:31:05.888Z,101084.00
2019-05-30T11:33:34.504Z,101085.00
2019-05-30T11:36:04.746Z,101087.00
2019-05-30T11:38:33.397Z,101079.00
2019-05-30T11:41:02.195Z,101075.00
2019-05-30T11:43:30.827Z,101076.00
2019-05-30T11:45:59.922Z,101077.00
2019-05-30T11:48:30.464Z,101070.00
2019-05-30T11:51:00.079Z,101074.00
2019-05-30T11:53:29.695Z,101074.00
2019-05-30T11:55:58.369Z,101075.00
2019-05-30T11:58:27.284Z,101070.00
2019-05-30T12:00:56.579Z,101062.00
2019-05-30T12:03:29.044Z,101071.00
2019-05-30T12:05:56.619Z,101063.00
2019-05-30T12:08:25.293Z,101064.00
2019-05-30T12:10:54.911Z,101061.00
2019-05-30T12:13:25.415Z,101064.00
2019-05-30T12:15:57.422Z,101065.00
2019-05-30T12:18:25.815Z,101058.00
2019-05-30T12:20:55.728Z,101061.00
2019-05-30T12:23:24.199Z,101060.00
2019-05-30T12:25:53.952Z,101054.00
2019-05-30T12:28:23.160Z,101049.00
2019-05-30T12:30:56.758Z,101056.00
2019-05-30T12:33:22.357Z,101053.00
2019-05-30T12:35:52.396Z,101055.00
2019-05-30T12:38:21.052Z,101057.00
2019-05-30T12:40:49.939Z,101053.00
2019-05-30T12:43:18.909Z,101054.00
2019-05-30T12:45:48.182Z,101058.00
2019-05-30T12:48:16.730Z,101053.00
2019-05-30T12:50:45.580Z,101064.00
2019-05-30T12:53:14.097Z,101062.00
2019-05-30T12:55:43.276Z,101057.00
2019-05-30T12:58:12.336Z,101057.00
2019-05-30T13:00:41.663Z,101056.00
2019-05-30T13:03:12.142Z,101057.00
2019-05-30T13:05:40.898Z,101050.00
2019-05-30T13:08:20.568Z,101053.00
2019-05-30T13:10:40.911Z,101050.00
2019-05-30T13:13:09.625Z,101059.00
2019-05-30T13:15:40.513Z,101061.00
2019-05-30T13:18:11.014Z,101051.00
2019-05-30T13:20:39.454Z,101052.00
2019-05-30T13:23:08.102Z,101045.00
2019-05-30T13:25:37.108Z,101048.00
2019-05-30T13:28:08.369Z,101046.00
2019-05-30T13:30:37.029Z,101053.00
2019-05-30T13:33:06.829Z,101043.00
2019-05-30T13:35:35.527Z,101050.00
2019-05-30T13:38:05.284Z,101040.00
2019-05-30T13:40:34.227Z,101044.00
2019-05-30T13:43:03.971Z,101040.00
2019-05-30T13:45:33.329Z,101040.00
2019-05-30T13:48:02.707Z,101043.00
2019-05-30T13:50:31.287Z,101044.00
2019-05-30T13:53:00.910Z,101034.00
2019-05-30T13:55:29.823Z,101037.00
2019-05-30T13:57:59.528Z,101031.00
2019-05-30T14:00:28.919Z,101032.00
2019-05-30T14:02:58.086Z,101034.00
2019-05-30T14:05:28.267Z,101034.00
2019-05-30T14:07:57.268Z,101041.00
2019-05-30T14:10:26.018Z,101039.00
2019-05-30T14:12:54.845Z,101034.00
2019-05-30T14:15:23.781Z,101024.00
2019-05-30T14:17:56.219Z,101021.00
2019-05-30T14:20:27.030Z,101022.00
2019-05-30T14:22:56.502Z,101016.00
2019-05-30T14:25:25.566Z,101016.00
2019-05-30T14:27:54.167Z,101019.00
2019-05-30T14:30:24.175Z,101023.00
2019-05-30T14:32:52.854Z,101008.00
2019-05-30T14:35:21.768Z,101008.00
2019-05-30T14:37:50.493Z,101007.00
2019-05-30T14:40:19.510Z,101010.00
2019-05-30T14:42:48.052Z,101016.00
2019-05-30T14:45:17.971Z,101003.00
2019-05-30T14:47:46.804Z,101007.00
2019-05-30T14:50:17.655Z,101004.00
2019-05-30T14:52:47.067Z,101001.00
2019-05-30T14:55:17.245Z,100998.00
2019-05-30T14:57:45.489Z,101001.00
2019-05-30T15:00:15.542Z,101006.00
2019-05-30T15:02:44.087Z,101010.00
2019-05-30T15:05:13.773Z,101010.00
2019-05-30T15:07:42.672Z,101016.00
2019-05-30T15:10:13.756Z,101010.00
2019-05-30T15:12:42.217Z,101005.00
2019-05-30T15:15:14.681Z,101012.00
2019-05-30T15:17:42.316Z,101006.00
2019-05-30T15:20:14.178Z,101009.00
2019-05-30T15:22:44.665Z,101010.00
2019-05-30T15:25:17.473Z,101007.00
2019-05-30T15:27:44.193Z,101001.00
2019-05-30T15:30:14.785Z,100996.00
2019-05-30T15:32:43.894Z,100993.00
2019-05-30T15:35:15.535Z,100995.00
2019-05-30T15:37:44.594Z,100990.00
2019-05-30T15:40:15.169Z,100987.00
2019-05-30T15:42:43.614Z,100985.00
2019-05-30T15:45:14.005Z,100985.00
2019-05-30T15:47:42.361Z,100985.00
2019-05-30T15:50:13.547Z,100979.00
2019-05-30T15:52:42.725Z,100975.00
2019-05-30T15:55:13.122Z,100981.00
2019-05-30T15:57:41.730Z,100974.00
2019-05-30T16:00:12.150Z,100971.00
2019-05-30T16:02:41.274Z,100968.00
2019-05-30T16:05:10.682Z,100964.00
2019-05-30T16:07:39.956Z,100967.00
2019-05-30T16:10:11.092Z,100970.00
2019-05-30T16:12:39.584Z,100961.00
2019-05-30T16:15:09.194Z,100964.00
2019-05-30T16:17:38.207Z,100963.00
2019-05-30T16:20:07.222Z,100968.00
2019-05-30T16:22:37.859Z,100974.00
2019-05-30T16:25:07.875Z,100966.00
2019-05-30T16:27:36.349Z,100968.00
2019-05-30T16:30:06.776Z,100966.00
2019-05-30T16:32:34.741Z,100964.00
2019-05-30T16:35:03.915Z,100960.00
2019-05-30T16:37:33.252Z,100964.00
2019-05-30T16:40:06.402Z,100954.00
2019-05-30T16:42:32.706Z,100962.00
2019-05-30T16:45:01.504Z,100966.00
2019-05-30T16:47:30.016Z,100963.00
2019-05-30T16:49:58.558Z,100964.00
2019-05-30T16:52:27.530Z,100960.00
2019-05-30T16:54:56.479Z,100967.00
2019-05-30T16:57:26.728Z,100966.00
2019-05-30T16:59:55.418Z,100958.00
2019-05-30T17:02:24.085Z,100962.00
2019-05-30T17:04:52.753Z,100962.00
2019-05-30T17:07:21.498Z,100964.00
2019-05-30T17:09:50.195Z,100968.00
2019-05-30T17:12:21.751Z,100971.00
2019-05-30T17:14:50.555Z,100968.00
2019-05-30T17:17:19.953Z,100971.00
2019-05-30T17:19:48.540Z,100963.00
2019-05-30T17:22:16.992Z,100962.00
2019-05-30T17:24:47.446Z,100974.00
2019-05-30T17:27:19.133Z,100971.00
2019-05-30T17:29:48.029Z,100969.00
2019-05-30T17:32:17.787Z,100967.00
2019-05-30T17:34:46.202Z,100960.00
2019-05-30T17:37:14.912Z,100964.00
2019-05-30T17:39:43.923Z,100970.00
2019-05-30T17:42:12.848Z,100970.00
2019-05-30T17:44:41.890Z,100974.00
2019-05-30T17:47:10.798Z,100970.00
2019-05-30T17:49:39.266Z,100974.00
2019-05-30T17:52:07.898Z,100973.00
2019-05-30T17:54:36.626Z,100971.00
2019-05-30T17:57:05.846Z,100971.00
2019-05-30T17:59:34.634Z,100979.00
2019-05-30T18:02:03.659Z,100967.00
2019-05-30T18:04:32.291Z,100970.00
2019-05-30T18:07:01.595Z,100971.00
2019-05-30T18:09:31.422Z,100976.00
2019-05-30T18:11:59.904Z,100972.00
2019-05-30T18:14:31.502Z,100971.00
2019-05-30T18:17:01.107Z,100975.00
2019-05-30T18:19:29.771Z,100971.00
2019-05-30T18:21:58.316Z,100979.00
2019-05-30T18:24:27.739Z,100977.00
2019-05-30T18:26:58.158Z,100991.00
2019-05-30T18:29:30.119Z,100993.00
2019-05-30T18:31:58.693Z,100982.00
2019-05-30T18:34:28.376Z,100986.00
2019-05-30T18:36:57.495Z,100984.00
2019-05-30T18:39:26.711Z,100990.00
2019-05-30T18:41:55.180Z,100992.00
2019-05-30T18:44:25.733Z,100998.00
2019-05-30T18:46:54.721Z,101004.00
2019-05-30T18:49:23.706Z,101002.00
2019-05-30T18:51:52.245Z,101002.00
2019-05-30T18:54:21.135Z,101000.00
2019-05-30T18:56:50.363Z,100998.00
2019-05-30T18:59:19.376Z,101009.00
2019-05-30T19:01:47.770Z,101008.00
2019-05-30T19:04:17.919Z,101012.00
2019-05-30T19:06:46.250Z,101001.00
2019-05-30T19:09:15.209Z,101011.00
2019-05-30T19:11:44.111Z,101018.00
2019-05-30T19:14:12.739Z,101008.00
2019-05-30T19:16:43.540Z,101017.00
2019-05-30T19:19:11.982Z,101021.00
2019-05-30T19:21:41.055Z,101010.00
2019-05-30T19:24:09.645Z,101016.00
2019-05-30T19:26:38.291Z,101024.00
2019-05-30T19:29:08.845Z,101025.00
2019-05-30T19:31:39.377Z,101020.00
2019-05-30T19:34:08.393Z,101018.00
2019-05-30T19:36:37.353Z,101021.00
2019-05-30T19:39:06.877Z,101023.00
2019-05-30T19:41:46.006Z,101022.00
2019-05-30T19:44:06.162Z,101027.00
2019-05-30T19:46:34.575Z,101017.00
2019-05-30T19:49:05.089Z,101025.00
2019-05-30T19:51:35.085Z,101021.00
2019-05-30T19:54:04.236Z,101026.00
2019-05-30T19:56:33.346Z,101024.00
2019-05-30T19:59:03.003Z,101029.00
2019-05-30T20:01:31.932Z,101027.00
2019-05-30T20:04:02.323Z,101027.00
2019-05-30T20:06:30.842Z,101026.00
2019-05-30T20:08:59.806Z,101024.00
2019-05-30T20:11:28.324Z,101026.00
2019-05-30T20:13:56.829Z,101019.00
2019-05-30T20:16:25.258Z,101022.00
2019-05-30T20:18:54.860Z,101024.00
2019-05-30T20:21:23.891Z,101023.00
2019-05-30T20:23:58.340Z,101025.00
2019-05-30T20:26:24.013Z,101019.00
2019-05-30T20:28:52.366Z,101024.00
2019-05-30T20:31:23.238Z,101027.00
2019-05-30T20:33:54.083Z,101020.00
2019-05-30T20:36:22.406Z,101030.00
2019-05-30T20:38:51.143Z,101028.00
2019-05-30T20:41:19.788Z,101033.00
2019-05-30T20:43:48.490Z,101031.00
2019-05-30T20:46:23.170Z,101030.00
2019-05-30T20:48:47.684Z,101036.00
2019-05-30T20:51:21.113Z,101031.00
2019-05-30T20:53:47.650Z,101029.00
2019-05-30T20:56:16.628Z,101031.00
2019-05-30T20:58:45.805Z,101027.00
2019-05-30T21:01:14.303Z,101031.00
2019-05-30T21:03:43.820Z,101031.00
2019-05-30T21:06:13.391Z,101030.00
2019-05-30T21:08:43.188Z,101033.00
2019-05-30T21:11:13.035Z,101031.00
2019-05-30T21:13:44.304Z,101025.00
2019-05-30T21:16:15.006Z,101026.00
2019-05-30T21:18:46.003Z,101032.00
2019-05-30T21:21:16.306Z,101032.00
2019-05-30T21:23:45.094Z,101030.00
2019-05-30T21:26:13.727Z,101024.00
2019-05-30T21:28:43.121Z,101030.00
2019-05-30T21:31:11.656Z,101030.00
2019-05-30T21:33:43.821Z,101031.00
2019-05-30T21:36:14.498Z,101029.00
2019-05-30T21:38:44.011Z,101037.00
2019-05-30T21:41:12.586Z,101034.00
2019-05-30T21:43:40.937Z,101031.00
2019-05-30T21:46:09.989Z,101029.00
2019-05-30T21:48:38.840Z,101041.00
2019-05-30T21:51:07.338Z,101029.00
2019-05-30T21:53:36.077Z,101044.00
2019-05-30T21:56:07.834Z,101038.00
2019-05-30T21:58:36.799Z,101040.00
2019-05-30T22:01:33.344Z,101044.00
2019-05-30T22:04:02.605Z,101036.00
2019-05-30T22:06:32.012Z,101043.00
2019-05-30T22:09:03.274Z,101047.00
2019-05-30T22:11:31.019Z,101042.00
2019-05-30T22:13:59.717Z,101041.00
2019-05-30T22:16:28.333Z,101044.00
2019-05-30T22:18:57.005Z,101035.00
2019-05-30T22:21:26.292Z,101044.00
2019-05-30T22:23:55.223Z,101036.00
2019-05-30T22:26:23.647Z,101031.00
2019-05-30T22:28:52.850Z,101038.00
2019-05-30T22:31:21.355Z,101032.00
2019-05-30T22:33:53.147Z,101026.00
2019-05-30T22:36:23.666Z,101035.00
2019-05-30T22:38:53.212Z,101039.00
2019-05-30T22:41:21.926Z,101037.00
2019-05-30T22:43:50.646Z,101033.00
2019-05-30T22:46:19.413Z,101029.00
2019-05-30T22:48:48.412Z,101031.00
2019-05-30T22:51:17.180Z,101037.00
2019-05-30T22:53:46.981Z,101033.00
2019-05-30T22:56:15.896Z,101035.00
2019-05-30T22:58:45.537Z,101035.00
2019-05-30T23:01:14.221Z,101030.00
2019-05-30T23:03:42.877Z,101038.00
2019-05-30T23:06:11.558Z,101048.00
2019-05-30T23:08:40.217Z,101040.00
2019-05-30T23:11:08.969Z,101044.00
2019-05-30T23:13:40.470Z,101035.00
2019-05-30T23:16:08.177Z,101032.00
2019-05-30T23:18:36.842Z,101032.00
2019-05-30T23:21:05.457Z,101026.00
2019-05-30T23:23:35.109Z,101025.00
2019-05-30T23:26:04.741Z,101023.00
2019-05-30T23:28:33.221Z,101019.00
2019-05-30T23:31:02.173Z,101023.00
2019-05-30T23:33:30.795Z,101019.00
2019-05-30T23:36:04.413Z,101020.00
2019-05-30T23:38:34.945Z,101027.00
2019-05-30T23:41:05.130Z,101022.00
2019-05-30T23:43:33.543Z,101016.00
2019-05-30T23:46:02.539Z,101016.00
2019-05-30T23:48:30.949Z,101015.00
2019-05-30T23:51:00.064Z,101012.00
2019-05-30T23:53:30.416Z,101014.00
2019-05-30T23:55:58.767Z,101005.00
2019-05-30T23:58:27.250Z,101002.00
